sensor_id;sensor_type;location;lat;lon;timestamp;pressure;altitude;pressure_sealevel;temperature;humidity
70982;BME280;58640;51.320;9.456;2022-12-05T00:02:04;99385.94;;;1.62;96.65
70982;BME280;58640;51.320;9.456;2022-12-05T00:04:30;99383.03;;;1.76;96.36
70982;BME280;58640;51.320;9.456;2022-12-05T00:06:55;99378.47;;;1.67;96.25
70982;BME280;58640;51.320;9.456;2022-12-05T00:09:20;99376.56;;;1.58;97.01
70982;BME280;58640;51.320;9.456;2022-12-05T00:11:46;99378.09;;;1.60;96.75
70982;BME280;58640;51.320;9.456;2022-12-05T00:14:12;99376.06;;;1.64;96.61
70982;BME280;58640;51.320;9.456;2022-12-05T00:16:39;99377.75;;;1.53;97.31
70982;BME280;58640;51.320;9.456;2022-12-05T00:19:06;99379.69;;;1.52;97.50
70982;BME280;58640;51.320;9.456;2022-12-05T00:21:34;99373.66;;;1.49;97.61
70982;BME280;58640;51.320;9.456;2022-12-05T00:24:00;99373.66;;;1.49;98.11
70982;BME280;58640;51.320;9.456;2022-12-05T00:26:26;99372.06;;;1.47;98.15
70982;BME280;58640;51.320;9.456;2022-12-05T00:28:52;99371.00;;;1.49;98.05
70982;BME280;58640;51.320;9.456;2022-12-05T00:31:20;99374.97;;;1.55;97.95
70982;BME280;58640;51.320;9.456;2022-12-05T00:33:47;99370.75;;;1.41;98.98
70982;BME280;58640;51.320;9.456;2022-12-05T00:36:22;99366.31;;;1.42;98.64
70982;BME280;58640;51.320;9.456;2022-12-05T00:38:48;99370.16;;;1.49;98.62
70982;BME280;58640;51.320;9.456;2022-12-05T00:41:22;99363.78;;;1.52;98.47
70982;BME280;58640;51.320;9.456;2022-12-05T00:43:49;99363.53;;;1.55;98.26
70982;BME280;58640;51.320;9.456;2022-12-05T00:46:17;99366.06;;;1.45;98.72
70982;BME280;58640;51.320;9.456;2022-12-05T00:48:43;99364.47;;;1.65;98.08
70982;BME280;58640;51.320;9.456;2022-12-05T00:51:09;99367.25;;;1.52;98.12
70982;BME280;58640;51.320;9.456;2022-12-05T00:53:35;99368.00;;;1.54;97.99
70982;BME280;58640;51.320;9.456;2022-12-05T00:56:06;99367.63;;;1.59;97.89
70982;BME280;58640;51.320;9.456;2022-12-05T00:58:33;99371.84;;;1.61;97.57
70982;BME280;58640;51.320;9.456;2022-12-05T01:03:36;99369.53;;;1.57;97.60
70982;BME280;58640;51.320;9.456;2022-12-05T01:06:02;99371.84;;;1.61;97.41
70982;BME280;58640;51.320;9.456;2022-12-05T01:08:30;99366.78;;;1.58;97.20
70982;BME280;58640;51.320;9.456;2022-12-05T01:10:57;99377.50;;;1.57;97.64
70982;BME280;58640;51.320;9.456;2022-12-05T01:13:24;99366.78;;;1.58;97.64
70982;BME280;58640;51.320;9.456;2022-12-05T01:15:49;99377.03;;;1.63;97.52
70982;BME280;58640;51.320;9.456;2022-12-05T01:18:16;99378.97;;;1.61;97.21
70982;BME280;58640;51.320;9.456;2022-12-05T01:20:42;99372.69;;;1.39;97.74
70982;BME280;58640;51.320;9.456;2022-12-05T01:23:07;99377.03;;;1.52;97.51
70982;BME280;58640;51.320;9.456;2022-12-05T01:25:33;99376.91;;;1.53;97.24
70982;BME280;58640;51.320;9.456;2022-12-05T01:27:59;99372.06;;;1.47;97.28
70982;BME280;58640;51.320;9.456;2022-12-05T01:30:25;99366.53;;;1.50;97.25
70982;BME280;58640;51.320;9.456;2022-12-05T01:32:50;99373.91;;;1.46;97.66
70982;BME280;58640;51.320;9.456;2022-12-05T01:35:16;99368.34;;;1.61;97.50
70982;BME280;58640;51.320;9.456;2022-12-05T01:37:41;99371.94;;;1.48;97.51
70982;BME280;58640;51.320;9.456;2022-12-05T01:40:07;99377.75;;;1.53;97.42
70982;BME280;58640;51.320;9.456;2022-12-05T01:42:33;99377.72;;;1.65;96.85
70982;BME280;58640;51.320;9.456;2022-12-05T01:45:05;99378.22;;;1.59;96.33
70982;BME280;58640;51.320;9.456;2022-12-05T01:47:34;99381.50;;;1.51;96.94
70982;BME280;58640;51.320;9.456;2022-12-05T01:50:00;99380.28;;;1.55;96.66
70982;BME280;58640;51.320;9.456;2022-12-05T01:52:28;99385.56;;;1.55;96.71
70982;BME280;58640;51.320;9.456;2022-12-05T01:54:58;99380.38;;;1.53;96.75
70982;BME280;58640;51.320;9.456;2022-12-05T01:57:24;99384.00;;;1.52;96.77
70982;BME280;58640;51.320;9.456;2022-12-05T01:59:53;99383.28;;;1.50;97.31
70982;BME280;58640;51.320;9.456;2022-12-05T02:02:20;99375.69;;;1.57;96.30
70982;BME280;58640;51.320;9.456;2022-12-05T02:05:02;99384.75;;;1.55;97.12
70982;BME280;58640;51.320;9.456;2022-12-05T02:07:30;99387.88;;;1.60;96.89
70982;BME280;58640;51.320;9.456;2022-12-05T02:09:56;99376.56;;;1.46;97.19
70982;BME280;58640;51.320;9.456;2022-12-05T02:12:21;99378.34;;;1.46;97.78
70982;BME280;58640;51.320;9.456;2022-12-05T02:14:58;99374.38;;;1.52;97.04
70982;BME280;58640;51.320;9.456;2022-12-05T02:17:45;99370.75;;;1.52;96.98
70982;BME280;58640;51.320;9.456;2022-12-05T02:28:38;99377.63;;;1.44;97.77
70982;BME280;58640;51.320;9.456;2022-12-05T02:31:34;99380.88;;;1.47;97.98
70982;BME280;58640;51.320;9.456;2022-12-05T02:34:19;99377.50;;;1.45;97.83
70982;BME280;58640;51.320;9.456;2022-12-05T02:39:42;99385.44;;;1.45;97.66
70982;BME280;58640;51.320;9.456;2022-12-05T02:42:16;99384.88;;;1.64;96.98
70982;BME280;58640;51.320;9.456;2022-12-05T02:45:09;99377.25;;;1.48;96.94
70982;BME280;58640;51.320;9.456;2022-12-05T02:47:41;99371.13;;;1.48;97.32
70982;BME280;58640;51.320;9.456;2022-12-05T02:50:09;99375.94;;;1.43;97.80
70982;BME280;58640;51.320;9.456;2022-12-05T02:52:38;99376.06;;;1.41;98.05
70982;BME280;58640;51.320;9.456;2022-12-05T02:55:06;99372.19;;;1.45;97.74
70982;BME280;58640;51.320;9.456;2022-12-05T02:57:33;99372.44;;;1.42;98.14
70982;BME280;58640;51.320;9.456;2022-12-05T02:59:59;99372.31;;;1.44;97.57
70982;BME280;58640;51.320;9.456;2022-12-05T03:02:27;99365.47;;;1.41;97.76
70982;BME280;58640;51.320;9.456;2022-12-05T03:04:57;99368.00;;;1.32;98.15
70982;BME280;58640;51.320;9.456;2022-12-05T03:07:27;99366.19;;;1.43;97.83
70982;BME280;58640;51.320;9.456;2022-12-05T03:09:56;99367.38;;;1.39;97.99
70982;BME280;58640;51.320;9.456;2022-12-05T03:12:29;99365.59;;;1.40;97.55
70982;BME280;58640;51.320;9.456;2022-12-05T03:15:24;99366.91;;;1.34;97.95
70982;BME280;58640;51.320;9.456;2022-12-05T03:18:05;99367.13;;;1.42;97.71
70982;BME280;58640;51.320;9.456;2022-12-05T03:20:36;99368.13;;;1.41;97.13
70982;BME280;58640;51.320;9.456;2022-12-05T03:23:15;99364.25;;;1.34;97.86
70982;BME280;58640;51.320;9.456;2022-12-05T03:28:32;99366.66;;;1.26;98.21
70982;BME280;58640;51.320;9.456;2022-12-05T03:31:07;99370.38;;;1.13;98.57
70982;BME280;58640;51.320;9.456;2022-12-05T03:33:40;99371.00;;;1.16;98.96
70982;BME280;58640;51.320;9.456;2022-12-05T03:36:21;99366.78;;;1.25;98.55
70982;BME280;58640;51.320;9.456;2022-12-05T03:39:07;99370.16;;;1.16;98.15
70982;BME280;58640;51.320;9.456;2022-12-05T03:47:00;99368.03;;;0.97;98.99
70982;BME280;58640;51.320;9.456;2022-12-05T03:49:35;99378.63;;;0.97;99.39
70982;BME280;58640;51.320;9.456;2022-12-05T03:52:19;99378.88;;;0.94;98.81
70982;BME280;58640;51.320;9.456;2022-12-05T03:54:52;99371.78;;;0.95;99.46
70982;BME280;58640;51.320;9.456;2022-12-05T03:57:42;99371.91;;;0.93;99.58
70982;BME280;58640;51.320;9.456;2022-12-05T04:00:12;99377.09;;;0.95;99.32
70982;BME280;58640;51.320;9.456;2022-12-05T04:03:01;99384.19;;;0.94;99.21
70982;BME280;58640;51.320;9.456;2022-12-05T04:05:39;99388.03;;;0.90;99.43
70982;BME280;58640;51.320;9.456;2022-12-05T04:08:23;99386.34;;;0.89;99.73
70982;BME280;58640;51.320;9.456;2022-12-05T04:10:52;99379.13;;;0.91;99.66
70982;BME280;58640;51.320;9.456;2022-12-05T04:13:33;99386.00;;;0.94;99.60
70982;BME280;58640;51.320;9.456;2022-12-05T04:16:08;99387.19;;;0.90;99.65
70982;BME280;58640;51.320;9.456;2022-12-05T04:18:59;99391.16;;;0.84;100.00
70982;BME280;58640;51.320;9.456;2022-12-05T04:21:33;99389.22;;;0.86;100.00
70982;BME280;58640;51.320;9.456;2022-12-05T04:24:09;99386.69;;;0.96;99.70
70982;BME280;58640;51.320;9.456;2022-12-05T04:27:11;99389.59;;;0.93;99.84
70982;BME280;58640;51.320;9.456;2022-12-05T04:29:53;99395.00;;;0.91;99.78
70982;BME280;58640;51.320;9.456;2022-12-05T04:32:23;99393.56;;;0.87;99.76
70982;BME280;58640;51.320;9.456;2022-12-05T04:34:54;99400.19;;;0.93;100.00
70982;BME280;58640;51.320;9.456;2022-12-05T04:37:22;99395.97;;;0.90;100.00
70982;BME280;58640;51.320;9.456;2022-12-05T04:39:54;99405.09;;;0.86;99.99
70982;BME280;58640;51.320;9.456;2022-12-05T04:42:25;99400.53;;;0.88;99.99
70982;BME280;58640;51.320;9.456;2022-12-05T04:44:56;99403.53;;;0.84;99.94
70982;BME280;58640;51.320;9.456;2022-12-05T04:47:28;99394.03;;;0.81;100.00
70982;BME280;58640;51.320;9.456;2022-12-05T04:49:55;99398.59;;;0.79;100.00
70982;BME280;58640;51.320;9.456;2022-12-05T04:52:22;99394.16;;;0.80;100.00
70982;BME280;58640;51.320;9.456;2022-12-05T04:54:58;99404.09;;;0.65;100.00
70982;BME280;58640;51.320;9.456;2022-12-05T04:57:36;99408.63;;;0.63;100.00
70982;BME280;58640;51.320;9.456;2022-12-05T05:00:06;99404.09;;;0.65;100.00
70982;BME280;58640;51.320;9.456;2022-12-05T05:02:38;99401.59;;;0.75;100.00
70982;BME280;58640;51.320;9.456;2022-12-05T05:05:08;99405.19;;;0.74;100.00
70982;BME280;58640;51.320;9.456;2022-12-05T05:07:47;99406.78;;;0.76;100.00
70982;BME280;58640;51.320;9.456;2022-12-05T05:10:15;99403.28;;;0.76;100.00
70982;BME280;58640;51.320;9.456;2022-12-05T05:12:43;99399.78;;;0.75;100.00
70982;BME280;58640;51.320;9.456;2022-12-05T05:15:09;99405.81;;;0.77;100.00
70982;BME280;58640;51.320;9.456;2022-12-05T05:17:34;99416.50;;;0.76;100.00
70982;BME280;58640;51.320;9.456;2022-12-05T05:19:59;99418.06;;;0.78;100.00
70982;BME280;58640;51.320;9.456;2022-12-05T05:22:48;99416.63;;;0.74;100.00
70982;BME280;58640;51.320;9.456;2022-12-05T05:25:13;99415.75;;;0.74;100.00
70982;BME280;58640;51.320;9.456;2022-12-05T05:27:39;99416.75;;;0.73;100.00
70982;BME280;58640;51.320;9.456;2022-12-05T05:30:05;99421.06;;;0.74;100.00
70982;BME280;58640;51.320;9.456;2022-12-05T05:32:33;99408.78;;;0.73;100.00
70982;BME280;58640;51.320;9.456;2022-12-05T05:34:58;99420.25;;;0.73;100.00
70982;BME280;58640;51.320;9.456;2022-12-05T05:37:24;99422.25;;;0.70;100.00
70982;BME280;58640;51.320;9.456;2022-12-05T05:39:49;99429.00;;;0.74;100.00
70982;BME280;58640;51.320;9.456;2022-12-05T05:42:14;99428.06;;;0.75;100.00
70982;BME280;58640;51.320;9.456;2022-12-05T05:44:40;99428.19;;;0.73;100.00
70982;BME280;58640;51.320;9.456;2022-12-05T05:47:05;99421.41;;;0.69;100.00
70982;BME280;58640;51.320;9.456;2022-12-05T05:49:30;99428.75;;;0.77;100.00
70982;BME280;58640;51.320;9.456;2022-12-05T05:51:56;99423.94;;;0.71;100.00
70982;BME280;58640;51.320;9.456;2022-12-05T05:54:21;99432.28;;;0.77;100.00
70982;BME280;58640;51.320;9.456;2022-12-05T05:56:46;99430.34;;;0.79;100.00
70982;BME280;58640;51.320;9.456;2022-12-05T05:59:12;99432.28;;;0.77;100.00
70982;BME280;58640;51.320;9.456;2022-12-05T06:01:37;99437.91;;;0.73;100.00
70982;BME280;58640;51.320;9.456;2022-12-05T06:04:02;99437.69;;;0.76;100.00
70982;BME280;58640;51.320;9.456;2022-12-05T06:06:28;99436.81;;;0.75;100.00
70982;BME280;58640;51.320;9.456;2022-12-05T06:08:53;99437.09;;;0.83;100.00
70982;BME280;58640;51.320;9.456;2022-12-05T06:11:24;99436.00;;;0.75;100.00
70982;BME280;58640;51.320;9.456;2022-12-05T06:13:50;99433.00;;;0.79;100.00
70982;BME280;58640;51.320;9.456;2022-12-05T06:16:17;99440.31;;;0.76;100.00
70982;BME280;58640;51.320;9.456;2022-12-05T06:18:43;99434.75;;;0.68;100.00
70982;BME280;58640;51.320;9.456;2022-12-05T06:21:09;99431.66;;;0.74;100.00
70982;BME280;58640;51.320;9.456;2022-12-05T06:23:36;99434.28;;;0.74;100.00
70982;BME280;58640;51.320;9.456;2022-12-05T06:26:03;99433.00;;;0.79;100.00
70982;BME280;58640;51.320;9.456;2022-12-05T06:28:29;99431.88;;;0.71;100.00
70982;BME280;58640;51.320;9.456;2022-12-05T06:30:54;99441.38;;;0.62;100.00
70982;BME280;58640;51.320;9.456;2022-12-05T06:33:20;99442.19;;;0.63;100.00
70982;BME280;58640;51.320;9.456;2022-12-05T06:35:46;99441.13;;;0.65;100.00
70982;BME280;58640;51.320;9.456;2022-12-05T06:38:12;99450.28;;;0.72;100.00
70982;BME280;58640;51.320;9.456;2022-12-05T06:40:42;99440.31;;;0.76;100.00
70982;BME280;58640;51.320;9.456;2022-12-05T06:43:08;99442.41;;;0.83;100.00
70982;BME280;58640;51.320;9.456;2022-12-05T06:45:36;99448.03;;;0.79;100.00
70982;BME280;58640;51.320;9.456;2022-12-05T06:48:01;99449.63;;;0.81;100.00
70982;BME280;58640;51.320;9.456;2022-12-05T06:50:27;99455.97;;;0.79;100.00
70982;BME280;58640;51.320;9.456;2022-12-05T06:52:52;99448.16;;;0.77;100.00
70982;BME280;58640;51.320;9.456;2022-12-05T06:55:17;99454.03;;;0.70;100.00
70982;BME280;58640;51.320;9.456;2022-12-05T06:57:43;99453.69;;;0.74;100.00
70982;BME280;58640;51.320;9.456;2022-12-05T07:00:08;99455.59;;;0.72;100.00
70982;BME280;58640;51.320;9.456;2022-12-05T07:02:53;99452.47;;;0.78;100.00
70982;BME280;58640;51.320;9.456;2022-12-05T07:05:18;99465.63;;;0.80;100.00
70982;BME280;58640;51.320;9.456;2022-12-05T07:07:44;99457.06;;;0.76;100.00
70982;BME280;58640;51.320;9.456;2022-12-05T07:10:10;99461.16;;;0.80;100.00
70982;BME280;58640;51.320;9.456;2022-12-05T07:12:35;99462.00;;;0.81;100.00
70982;BME280;58640;51.320;9.456;2022-12-05T07:15:01;99452.81;;;0.74;100.00
70982;BME280;58640;51.320;9.456;2022-12-05T07:17:26;99464.03;;;0.77;100.00
70982;BME280;58640;51.320;9.456;2022-12-05T07:19:53;99472.72;;;0.79;100.00
70982;BME280;58640;51.320;9.456;2022-12-05T07:22:20;99471.75;;;0.80;100.00
70982;BME280;58640;51.320;9.456;2022-12-05T07:24:46;99468.03;;;0.83;100.00
70982;BME280;58640;51.320;9.456;2022-12-05T07:27:13;99474.03;;;0.85;100.00
70982;BME280;58640;51.320;9.456;2022-12-05T07:29:39;99470.69;;;0.83;100.00
70982;BME280;58640;51.320;9.456;2022-12-05T07:32:04;99477.31;;;0.88;100.00
70982;BME280;58640;51.320;9.456;2022-12-05T07:34:30;99473.72;;;0.89;100.00
70982;BME280;58640;51.320;9.456;2022-12-05T07:36:55;99475.41;;;0.90;100.00
70982;BME280;58640;51.320;9.456;2022-12-05T07:39:20;99476.81;;;0.83;100.00
70982;BME280;58640;51.320;9.456;2022-12-05T07:41:46;99475.44;;;1.01;100.00
70982;BME280;58640;51.320;9.456;2022-12-05T07:44:12;99479.38;;;0.96;100.00
70982;BME280;58640;51.320;9.456;2022-12-05T07:46:38;99475.91;;;0.95;100.00
70982;BME280;58640;51.320;9.456;2022-12-05T07:49:03;99474.59;;;1.01;100.00
70982;BME280;58640;51.320;9.456;2022-12-05T07:51:29;99475.34;;;1.03;100.00
70982;BME280;58640;51.320;9.456;2022-12-05T07:53:57;99478.47;;;1.08;100.00
70982;BME280;58640;51.320;9.456;2022-12-05T07:56:23;99476.56;;;1.10;100.00
70982;BME280;58640;51.320;9.456;2022-12-05T07:58:49;99486.94;;;1.13;100.00
70982;BME280;58640;51.320;9.456;2022-12-05T08:01:20;99488.44;;;1.04;100.00
70982;BME280;58640;51.320;9.456;2022-12-05T08:03:47;99491.59;;;1.09;100.00
70982;BME280;58640;51.320;9.456;2022-12-05T08:06:16;99495.81;;;1.12;100.00
70982;BME280;58640;51.320;9.456;2022-12-05T08:08:43;99502.72;;;1.14;100.00
70982;BME280;58640;51.320;9.456;2022-12-05T08:11:11;99498.03;;;1.18;100.00
70982;BME280;58640;51.320;9.456;2022-12-05T08:13:38;99506.56;;;1.21;100.00
70982;BME280;58640;51.320;9.456;2022-12-05T08:16:09;99509.72;;;1.26;99.52
70982;BME280;58640;51.320;9.456;2022-12-05T08:18:36;99511.53;;;1.26;99.56
70982;BME280;58640;51.320;9.456;2022-12-05T08:21:03;99512.72;;;1.22;99.67
70982;BME280;58640;51.320;9.456;2022-12-05T08:23:30;99519.09;;;1.19;99.89
70982;BME280;58640;51.320;9.456;2022-12-05T08:25:59;99519.09;;;1.19;100.00
70982;BME280;58640;51.320;9.456;2022-12-05T08:28:24;99522.94;;;1.15;100.00
70982;BME280;58640;51.320;9.456;2022-12-05T08:30:50;99527.16;;;1.18;100.00
70982;BME280;58640;51.320;9.456;2022-12-05T08:33:15;99527.06;;;1.19;100.00
70982;BME280;58640;51.320;9.456;2022-12-05T08:35:41;99521.28;;;1.25;100.00
70982;BME280;58640;51.320;9.456;2022-12-05T08:38:06;99527.19;;;1.29;99.73
70982;BME280;58640;51.320;9.456;2022-12-05T08:40:31;99534.88;;;1.21;99.69
70982;BME280;58640;51.320;9.456;2022-12-05T08:42:57;99532.63;;;1.27;100.00
70982;BME280;58640;51.320;9.456;2022-12-05T08:45:22;99534.19;;;1.30;99.71
70982;BME280;58640;51.320;9.456;2022-12-05T08:47:47;99544.03;;;1.28;99.34
70982;BME280;58640;51.320;9.456;2022-12-05T08:50:12;99549.00;;;1.32;99.54
70982;BME280;58640;51.320;9.456;2022-12-05T08:52:38;99551.19;;;1.38;99.21
70982;BME280;58640;51.320;9.456;2022-12-05T08:55:03;99544.34;;;1.47;98.89
70982;BME280;58640;51.320;9.456;2022-12-05T08:57:29;99546.06;;;1.48;98.43
70982;BME280;58640;51.320;9.456;2022-12-05T08:59:54;99542.66;;;1.46;98.15
70982;BME280;58640;51.320;9.456;2022-12-05T09:02:19;99554.63;;;1.52;97.85
70982;BME280;58640;51.320;9.456;2022-12-05T09:04:49;99549.19;;;1.53;98.22
70982;BME280;58640;51.320;9.456;2022-12-05T09:07:15;99555.69;;;1.49;98.05
70982;BME280;58640;51.320;9.456;2022-12-05T09:09:41;99551.84;;;1.53;98.39
70982;BME280;58640;51.320;9.456;2022-12-05T09:12:06;99556.78;;;1.58;98.39
70982;BME280;58640;51.320;9.456;2022-12-05T09:14:31;99554.91;;;1.71;97.72
70982;BME280;58640;51.320;9.456;2022-12-05T09:16:57;99555.84;;;1.70;97.48
70982;BME280;58640;51.320;9.456;2022-12-05T09:19:23;99553.06;;;1.71;97.54
70982;BME280;58640;51.320;9.456;2022-12-05T09:24:21;99548.41;;;1.86;97.17
70982;BME280;58640;51.320;9.456;2022-12-05T09:26:47;99551.31;;;1.94;96.12
70982;BME280;58640;51.320;9.456;2022-12-05T09:29:13;99551.78;;;1.88;96.15
70982;BME280;58640;51.320;9.456;2022-12-05T09:31:38;99552.28;;;1.82;96.71
70982;BME280;58640;51.320;9.456;2022-12-05T09:34:06;99545.03;;;1.84;97.10
70982;BME280;58640;51.320;9.456;2022-12-05T09:36:32;99546.97;;;1.82;96.64
70982;BME280;58640;51.320;9.456;2022-12-05T09:39:04;99555.88;;;1.81;96.86
70982;BME280;58640;51.320;9.456;2022-12-05T09:44:48;99547.41;;;1.76;96.56
70982;BME280;58640;51.320;9.456;2022-12-05T09:52:31;99553.34;;;1.79;96.43
70982;BME280;58640;51.320;9.456;2022-12-05T09:55:15;99547.66;;;1.84;96.89
70982;BME280;58640;51.320;9.456;2022-12-05T09:57:50;99548.88;;;1.80;96.52
70982;BME280;58640;51.320;9.456;2022-12-05T10:00:16;99550.56;;;1.81;96.82
70982;BME280;58640;51.320;9.456;2022-12-05T10:03:11;99549.13;;;1.88;96.20
70982;BME280;58640;51.320;9.456;2022-12-05T10:08:32;99539.59;;;1.85;96.57
70982;BME280;58640;51.320;9.456;2022-12-05T10:13:44;99534.19;;;1.87;96.31
70982;BME280;58640;51.320;9.456;2022-12-05T10:16:27;99527.44;;;1.94;95.76
70982;BME280;58640;51.320;9.456;2022-12-05T10:18:57;99527.69;;;2.02;95.23
70982;BME280;58640;51.320;9.456;2022-12-05T10:21:35;99523.22;;;2.02;95.22
70982;BME280;58640;51.320;9.456;2022-12-05T10:24:10;99524.53;;;2.08;95.01
70982;BME280;58640;51.320;9.456;2022-12-05T10:26:43;99530.47;;;2.11;95.21
70982;BME280;58640;51.320;9.456;2022-12-05T10:32:17;99518.41;;;2.18;94.76
70982;BME280;58640;51.320;9.456;2022-12-05T10:34:44;99514.28;;;2.25;94.03
70982;BME280;58640;51.320;9.456;2022-12-05T10:37:15;99516.81;;;2.27;93.96
70982;BME280;58640;51.320;9.456;2022-12-05T10:39:41;99524.19;;;2.34;93.73
70982;BME280;58640;51.320;9.456;2022-12-05T10:42:12;99520.19;;;2.40;93.56
70982;BME280;58640;51.320;9.456;2022-12-05T10:44:39;99518.88;;;2.34;92.86
70982;BME280;58640;51.320;9.456;2022-12-05T10:47:04;99526.13;;;2.21;94.20
70982;BME280;58640;51.320;9.456;2022-12-05T10:49:31;99537.09;;;2.17;94.78
70982;BME280;58640;51.320;9.456;2022-12-05T10:51:57;99530.59;;;2.10;94.89
70982;BME280;58640;51.320;9.456;2022-12-05T10:54:25;99532.63;;;2.06;95.17
70982;BME280;58640;51.320;9.456;2022-12-05T10:56:53;99536.13;;;2.07;95.12
70982;BME280;58640;51.320;9.456;2022-12-05T10:59:21;99531.81;;;2.06;95.49
70982;BME280;58640;51.320;9.456;2022-12-05T11:01:55;99535.28;;;2.06;95.54
70982;BME280;58640;51.320;9.456;2022-12-05T11:04:53;99543.00;;;1.98;95.94
70982;BME280;58640;51.320;9.456;2022-12-05T11:09:50;99538.03;;;1.83;97.19
70982;BME280;58640;51.320;9.456;2022-12-05T11:17:37;99537.53;;;1.67;98.24
70982;BME280;58640;51.320;9.456;2022-12-05T11:22:53;99539.13;;;1.69;98.43
70982;BME280;58640;51.320;9.456;2022-12-05T11:25:32;99531.38;;;1.66;98.75
70982;BME280;58640;51.320;9.456;2022-12-05T11:28:21;99538.25;;;1.58;98.96
70982;BME280;58640;51.320;9.456;2022-12-05T11:31:19;99536.09;;;1.63;99.18
70982;BME280;58640;51.320;9.456;2022-12-05T11:34:00;99536.78;;;1.53;99.56
70982;BME280;58640;51.320;9.456;2022-12-05T11:36:36;99539.56;;;1.63;98.74
70982;BME280;58640;51.320;9.456;2022-12-05T11:39:03;99540.16;;;1.56;99.31
70982;BME280;58640;51.320;9.456;2022-12-05T11:44:40;99533.31;;;1.64;99.61
70982;BME280;58640;51.320;9.456;2022-12-05T11:47:21;99531.34;;;1.55;99.62
70982;BME280;58640;51.320;9.456;2022-12-05T11:55:29;99529.69;;;1.65;100.00
70982;BME280;58640;51.320;9.456;2022-12-05T12:14:58;99529.06;;;1.62;100.00
70982;BME280;58640;51.320;9.456;2022-12-05T12:17:41;99534.00;;;1.55;100.00
70982;BME280;58640;51.320;9.456;2022-12-05T12:20:29;99532.00;;;1.70;100.00
70982;BME280;58640;51.320;9.456;2022-12-05T12:28:32;99533.09;;;1.67;100.00
70982;BME280;58640;51.320;9.456;2022-12-05T12:37:37;99537.78;;;1.75;100.00
70982;BME280;58640;51.320;9.456;2022-12-05T12:40:22;99531.88;;;1.82;100.00
70982;BME280;58640;51.320;9.456;2022-12-05T12:49:10;99531.50;;;1.76;100.00
70982;BME280;58640;51.320;9.456;2022-12-05T12:51:45;99538.03;;;1.83;100.00
70982;BME280;58640;51.320;9.456;2022-12-05T12:57:11;99533.22;;;1.88;99.80
70982;BME280;58640;51.320;9.456;2022-12-05T13:05:04;99536.94;;;1.85;99.83
70982;BME280;58640;51.320;9.456;2022-12-05T13:07:44;99541.28;;;1.75;100.00
70982;BME280;58640;51.320;9.456;2022-12-05T13:10:37;99528.53;;;1.80;100.00
70982;BME280;58640;51.320;9.456;2022-12-05T13:13:05;99532.38;;;2.09;98.35
70982;BME280;58640;51.320;9.456;2022-12-05T13:15:38;99522.38;;;1.91;98.78
70982;BME280;58640;51.320;9.456;2022-12-05T13:18:06;99518.50;;;1.84;100.00
70982;BME280;58640;51.320;9.456;2022-12-05T13:20:48;99523.59;;;1.98;98.19
70982;BME280;58640;51.320;9.456;2022-12-05T13:23:23;99509.97;;;1.91;98.78
70982;BME280;58640;51.320;9.456;2022-12-05T13:25:50;99517.31;;;1.88;99.03
70982;BME280;58640;51.320;9.456;2022-12-05T13:30:57;99523.34;;;1.90;99.57
70982;BME280;58640;51.320;9.456;2022-12-05T13:33:29;99525.28;;;1.99;98.75
70982;BME280;58640;51.320;9.456;2022-12-05T13:36:27;99529.97;;;1.95;98.81
70982;BME280;58640;51.320;9.456;2022-12-05T13:41:58;99518.13;;;1.77;99.88
70982;BME280;58640;51.320;9.456;2022-12-05T13:44:52;99525.28;;;1.88;99.44
70982;BME280;58640;51.320;9.456;2022-12-05T13:47:32;99519.97;;;1.88;99.40
70982;BME280;58640;51.320;9.456;2022-12-05T13:52:31;99530.22;;;2.03;98.69
70982;BME280;58640;51.320;9.456;2022-12-05T13:55:01;99541.06;;;1.89;99.25
70982;BME280;58640;51.320;9.456;2022-12-05T14:05:37;99540.47;;;1.97;98.64
70982;BME280;58640;51.320;9.456;2022-12-05T15:20:57;99552.28;;;1.82;100.00
70982;BME280;58640;51.320;9.456;2022-12-05T15:26:56;99550.56;;;1.81;100.00
70982;BME280;58640;51.320;9.456;2022-12-05T15:32:02;99554.44;;;1.77;100.00
70982;BME280;58640;51.320;9.456;2022-12-05T15:37:09;99565.41;;;1.83;100.00
70982;BME280;58640;51.320;9.456;2022-12-05T15:42:14;99555.25;;;1.77;100.00
70982;BME280;58640;51.320;9.456;2022-12-05T15:44:40;99561.78;;;1.84;100.00
70982;BME280;58640;51.320;9.456;2022-12-05T15:47:21;99565.91;;;1.88;100.00
70982;BME280;58640;51.320;9.456;2022-12-05T15:49:51;99572.38;;;1.84;100.00
70982;BME280;58640;51.320;9.456;2022-12-05T15:52:30;99572.75;;;1.91;100.00
70982;BME280;58640;51.320;9.456;2022-12-05T15:55:03;99576.84;;;1.84;100.00
70982;BME280;58640;51.320;9.456;2022-12-05T15:57:54;99575.91;;;1.85;100.00
70982;BME280;58640;51.320;9.456;2022-12-05T16:00:24;99572.50;;;1.83;100.00
70982;BME280;58640;51.320;9.456;2022-12-05T16:05:23;99573.00;;;1.88;100.00
70982;BME280;58640;51.320;9.456;2022-12-05T16:07:52;99567.47;;;1.91;100.00
70982;BME280;58640;51.320;9.456;2022-12-05T16:10:18;99575.31;;;1.92;100.00
70982;BME280;58640;51.320;9.456;2022-12-05T16:12:45;99568.56;;;1.88;100.00
70982;BME280;58640;51.320;9.456;2022-12-05T16:15:22;99563.59;;;1.84;100.00
70982;BME280;58640;51.320;9.456;2022-12-05T16:17:54;99562.53;;;1.86;100.00
70982;BME280;58640;51.320;9.456;2022-12-05T16:20:21;99571.78;;;1.81;100.00
70982;BME280;58640;51.320;9.456;2022-12-05T16:22:49;99574.44;;;1.81;100.00
70982;BME280;58640;51.320;9.456;2022-12-05T16:25:17;99570.84;;;1.82;100.00
70982;BME280;58640;51.320;9.456;2022-12-05T16:27:55;99572.28;;;1.86;100.00
70982;BME280;58640;51.320;9.456;2022-12-05T16:30:21;99574.44;;;1.81;100.00
70982;BME280;58640;51.320;9.456;2022-12-05T16:32:49;99567.44;;;1.80;100.00
70982;BME280;58640;51.320;9.456;2022-12-05T16:35:38;99567.31;;;1.81;100.00
70982;BME280;58640;51.320;9.456;2022-12-05T16:38:17;99572.38;;;1.84;100.00
70982;BME280;58640;51.320;9.456;2022-12-05T16:45:47;99578.78;;;1.82;100.00
70982;BME280;58640;51.320;9.456;2022-12-05T16:48:29;99574.56;;;1.79;100.00
70982;BME280;58640;51.320;9.456;2022-12-05T16:53:35;99575.53;;;1.89;100.00
70982;BME280;58640;51.320;9.456;2022-12-05T16:56:02;99574.56;;;1.90;100.00
70982;BME280;58640;51.320;9.456;2022-12-05T16:58:29;99578.19;;;1.89;100.00
70982;BME280;58640;51.320;9.456;2022-12-05T17:01:00;99574.69;;;1.89;100.00